sensor_id;sensor_type;location;lat;lon;timestamp;P1;durP1;ratioP1;P2;durP2;ratioP2
71637;SDS011;59485;43.542;-5.676;2024-03-17T00:01:49;21.57;;;12.37;;
71637;SDS011;59485;43.542;-5.676;2024-03-17T00:04:14;20.47;;;12.40;;
71637;SDS011;59485;43.542;-5.676;2024-03-17T00:06:40;18.25;;;13.75;;
71637;SDS011;59485;43.542;-5.676;2024-03-17T00:09:05;20.83;;;12.17;;
71637;SDS011;59485;43.542;-5.676;2024-03-17T00:11:34;20.40;;;12.60;;
71637;SDS011;59485;43.542;-5.676;2024-03-17T00:14:00;21.60;;;16.87;;
71637;SDS011;59485;43.542;-5.676;2024-03-17T00:16:26;17.38;;;13.15;;
71637;SDS011;59485;43.542;-5.676;2024-03-17T00:18:51;18.70;;;11.97;;
71637;SDS011;59485;43.542;-5.676;2024-03-17T00:21:16;22.37;;;19.73;;
71637;SDS011;59485;43.542;-5.676;2024-03-17T00:23:42;20.03;;;12.17;;
71637;SDS011;59485;43.542;-5.676;2024-03-17T00:26:07;17.87;;;12.20;;
71637;SDS011;59485;43.542;-5.676;2024-03-17T00:28:33;20.33;;;12.43;;
71637;SDS011;59485;43.542;-5.676;2024-03-17T00:30:58;18.80;;;13.20;;
71637;SDS011;59485;43.542;-5.676;2024-03-17T00:33:23;18.57;;;12.97;;
71637;SDS011;59485;43.542;-5.676;2024-03-17T00:35:49;20.53;;;13.63;;
71637;SDS011;59485;43.542;-5.676;2024-03-17T00:38:14;18.98;;;14.85;;
71637;SDS011;59485;43.542;-5.676;2024-03-17T00:40:40;18.73;;;13.17;;
71637;SDS011;59485;43.542;-5.676;2024-03-17T00:43:06;23.15;;;13.73;;
71637;SDS011;59485;43.542;-5.676;2024-03-17T00:45:32;25.60;;;14.32;;
71637;SDS011;59485;43.542;-5.676;2024-03-17T00:47:58;22.77;;;14.43;;
71637;SDS011;59485;43.542;-5.676;2024-03-17T00:50:23;20.90;;;13.50;;
71637;SDS011;59485;43.542;-5.676;2024-03-17T00:52:48;19.63;;;14.17;;
71637;SDS011;59485;43.542;-5.676;2024-03-17T00:55:14;19.17;;;13.35;;
71637;SDS011;59485;43.542;-5.676;2024-03-17T00:57:40;24.40;;;14.20;;
71637;SDS011;59485;43.542;-5.676;2024-03-17T01:00:05;20.30;;;12.40;;
71637;SDS011;59485;43.542;-5.676;2024-03-17T01:02:31;23.83;;;13.27;;
71637;SDS011;59485;43.542;-5.676;2024-03-17T01:04:56;21.57;;;13.20;;
71637;SDS011;59485;43.542;-5.676;2024-03-17T01:07:22;21.42;;;12.65;;
71637;SDS011;59485;43.542;-5.676;2024-03-17T01:09:47;19.40;;;12.50;;
71637;SDS011;59485;43.542;-5.676;2024-03-17T01:12:13;19.50;;;13.50;;
71637;SDS011;59485;43.542;-5.676;2024-03-17T01:14:38;20.50;;;13.25;;
71637;SDS011;59485;43.542;-5.676;2024-03-17T01:17:04;17.53;;;12.13;;
71637;SDS011;59485;43.542;-5.676;2024-03-17T01:19:33;18.75;;;12.55;;
71637;SDS011;59485;43.542;-5.676;2024-03-17T01:22:00;18.37;;;12.20;;
71637;SDS011;59485;43.542;-5.676;2024-03-17T01:24:28;17.55;;;12.10;;
71637;SDS011;59485;43.542;-5.676;2024-03-17T01:26:57;25.85;;;23.30;;
71637;SDS011;59485;43.542;-5.676;2024-03-17T01:29:23;24.83;;;22.10;;
71637;SDS011;59485;43.542;-5.676;2024-03-17T01:31:48;21.47;;;12.87;;
71637;SDS011;59485;43.542;-5.676;2024-03-17T01:34:13;18.97;;;12.10;;
71637;SDS011;59485;43.542;-5.676;2024-03-17T01:36:39;18.90;;;12.93;;
71637;SDS011;59485;43.542;-5.676;2024-03-17T01:39:07;19.90;;;12.00;;
71637;SDS011;59485;43.542;-5.676;2024-03-17T01:41:32;16.77;;;13.00;;
71637;SDS011;59485;43.542;-5.676;2024-03-17T01:43:58;19.33;;;11.32;;
71637;SDS011;59485;43.542;-5.676;2024-03-17T01:46:24;19.53;;;11.83;;
71637;SDS011;59485;43.542;-5.676;2024-03-17T01:48:49;17.70;;;12.02;;
71637;SDS011;59485;43.542;-5.676;2024-03-17T01:51:15;18.77;;;12.27;;
71637;SDS011;59485;43.542;-5.676;2024-03-17T01:53:43;17.48;;;11.60;;
71637;SDS011;59485;43.542;-5.676;2024-03-17T01:56:12;15.97;;;12.13;;
71637;SDS011;59485;43.542;-5.676;2024-03-17T01:58:38;14.65;;;10.77;;
71637;SDS011;59485;43.542;-5.676;2024-03-17T02:01:04;12.93;;;9.97;;
71637;SDS011;59485;43.542;-5.676;2024-03-17T02:03:32;14.90;;;9.73;;
71637;SDS011;59485;43.542;-5.676;2024-03-17T02:05:58;13.47;;;10.07;;
71637;SDS011;59485;43.542;-5.676;2024-03-17T02:08:23;14.25;;;9.57;;
71637;SDS011;59485;43.542;-5.676;2024-03-17T02:10:53;11.27;;;9.00;;
71637;SDS011;59485;43.542;-5.676;2024-03-17T02:13:19;13.43;;;9.35;;
71637;SDS011;59485;43.542;-5.676;2024-03-17T02:15:46;12.48;;;9.55;;
71637;SDS011;59485;43.542;-5.676;2024-03-17T02:18:11;14.33;;;8.80;;
71637;SDS011;59485;43.542;-5.676;2024-03-17T02:20:36;11.90;;;9.90;;
71637;SDS011;59485;43.542;-5.676;2024-03-17T02:23:20;10.73;;;9.63;;
71637;SDS011;59485;43.542;-5.676;2024-03-17T02:25:45;10.53;;;7.70;;
71637;SDS011;59485;43.542;-5.676;2024-03-17T02:28:12;10.82;;;7.30;;
71637;SDS011;59485;43.542;-5.676;2024-03-17T02:30:37;16.33;;;9.90;;
71637;SDS011;59485;43.542;-5.676;2024-03-17T02:33:05;20.90;;;13.65;;
71637;SDS011;59485;43.542;-5.676;2024-03-17T02:35:31;18.10;;;15.83;;
71637;SDS011;59485;43.542;-5.676;2024-03-17T02:37:56;18.73;;;12.77;;
71637;SDS011;59485;43.542;-5.676;2024-03-17T02:40:21;23.60;;;13.60;;
71637;SDS011;59485;43.542;-5.676;2024-03-17T02:42:47;18.27;;;11.30;;
71637;SDS011;59485;43.542;-5.676;2024-03-17T02:45:12;17.98;;;11.52;;
71637;SDS011;59485;43.542;-5.676;2024-03-17T02:47:38;19.73;;;12.03;;
71637;SDS011;59485;43.542;-5.676;2024-03-17T02:50:03;18.70;;;13.70;;
71637;SDS011;59485;43.542;-5.676;2024-03-17T02:52:29;19.48;;;12.65;;
71637;SDS011;59485;43.542;-5.676;2024-03-17T02:54:55;16.03;;;9.73;;
71637;SDS011;59485;43.542;-5.676;2024-03-17T02:57:20;16.20;;;10.10;;
71637;SDS011;59485;43.542;-5.676;2024-03-17T02:59:47;19.63;;;12.13;;
71637;SDS011;59485;43.542;-5.676;2024-03-17T03:02:14;15.93;;;9.30;;
71637;SDS011;59485;43.542;-5.676;2024-03-17T03:04:40;12.03;;;8.63;;
71637;SDS011;59485;43.542;-5.676;2024-03-17T03:07:05;14.67;;;9.37;;
71637;SDS011;59485;43.542;-5.676;2024-03-17T03:09:30;16.83;;;8.60;;
71637;SDS011;59485;43.542;-5.676;2024-03-17T03:11:57;10.93;;;8.45;;
71637;SDS011;59485;43.542;-5.676;2024-03-17T03:14:23;12.80;;;7.67;;
71637;SDS011;59485;43.542;-5.676;2024-03-17T03:16:48;15.93;;;7.87;;
71637;SDS011;59485;43.542;-5.676;2024-03-17T03:19:14;16.85;;;7.97;;
71637;SDS011;59485;43.542;-5.676;2024-03-17T03:21:40;10.55;;;7.72;;
71637;SDS011;59485;43.542;-5.676;2024-03-17T03:24:05;13.60;;;7.10;;
71637;SDS011;59485;43.542;-5.676;2024-03-17T03:26:31;16.63;;;8.33;;
71637;SDS011;59485;43.542;-5.676;2024-03-17T03:28:56;17.45;;;6.80;;
71637;SDS011;59485;43.542;-5.676;2024-03-17T03:31:21;10.80;;;6.80;;
71637;SDS011;59485;43.542;-5.676;2024-03-17T03:33:47;16.30;;;14.83;;
71637;SDS011;59485;43.542;-5.676;2024-03-17T03:36:13;12.20;;;7.17;;
71637;SDS011;59485;43.542;-5.676;2024-03-17T03:38:39;12.18;;;6.80;;
71637;SDS011;59485;43.542;-5.676;2024-03-17T03:41:08;14.37;;;6.10;;
71637;SDS011;59485;43.542;-5.676;2024-03-17T03:43:33;11.35;;;7.03;;
71637;SDS011;59485;43.542;-5.676;2024-03-17T03:45:59;14.40;;;6.80;;
71637;SDS011;59485;43.542;-5.676;2024-03-17T03:48:25;15.73;;;8.05;;
71637;SDS011;59485;43.542;-5.676;2024-03-17T03:50:50;11.80;;;6.53;;
71637;SDS011;59485;43.542;-5.676;2024-03-17T03:53:15;11.20;;;6.50;;
71637;SDS011;59485;43.542;-5.676;2024-03-17T03:55:41;8.77;;;6.13;;
71637;SDS011;59485;43.542;-5.676;2024-03-17T03:58:07;11.60;;;6.45;;
71637;SDS011;59485;43.542;-5.676;2024-03-17T04:00:32;10.77;;;6.30;;
71637;SDS011;59485;43.542;-5.676;2024-03-17T04:02:58;13.70;;;6.40;;
71637;SDS011;59485;43.542;-5.676;2024-03-17T04:05:23;12.55;;;6.88;;
71637;SDS011;59485;43.542;-5.676;2024-03-17T04:07:48;11.43;;;6.07;;
71637;SDS011;59485;43.542;-5.676;2024-03-17T04:10:14;10.93;;;5.93;;
71637;SDS011;59485;43.542;-5.676;2024-03-17T04:12:40;9.80;;;6.70;;
71637;SDS011;59485;43.542;-5.676;2024-03-17T04:15:05;10.00;;;7.80;;
71637;SDS011;59485;43.542;-5.676;2024-03-17T04:17:31;10.10;;;6.35;;
71637;SDS011;59485;43.542;-5.676;2024-03-17T04:19:57;12.35;;;8.18;;
71637;SDS011;59485;43.542;-5.676;2024-03-17T04:22:23;11.03;;;7.30;;
71637;SDS011;59485;43.542;-5.676;2024-03-17T04:24:48;12.70;;;7.10;;
71637;SDS011;59485;43.542;-5.676;2024-03-17T04:27:21;13.55;;;9.45;;
71637;SDS011;59485;43.542;-5.676;2024-03-17T04:29:47;11.65;;;7.47;;
71637;SDS011;59485;43.542;-5.676;2024-03-17T04:32:13;18.17;;;8.52;;
71637;SDS011;59485;43.542;-5.676;2024-03-17T04:34:38;21.40;;;19.40;;
71637;SDS011;59485;43.542;-5.676;2024-03-17T04:37:04;17.10;;;9.37;;
71637;SDS011;59485;43.542;-5.676;2024-03-17T04:39:29;12.70;;;8.30;;
71637;SDS011;59485;43.542;-5.676;2024-03-17T04:41:54;12.67;;;8.47;;
71637;SDS011;59485;43.542;-5.676;2024-03-17T04:44:20;15.20;;;8.30;;
71637;SDS011;59485;43.542;-5.676;2024-03-17T04:46:45;14.67;;;7.87;;
71637;SDS011;59485;43.542;-5.676;2024-03-17T04:49:11;14.63;;;7.83;;
71637;SDS011;59485;43.542;-5.676;2024-03-17T04:51:36;14.63;;;8.07;;
71637;SDS011;59485;43.542;-5.676;2024-03-17T04:54:02;18.08;;;7.85;;
71637;SDS011;59485;43.542;-5.676;2024-03-17T04:56:31;16.13;;;8.13;;
71637;SDS011;59485;43.542;-5.676;2024-03-17T04:58:59;18.85;;;7.82;;
71637;SDS011;59485;43.542;-5.676;2024-03-17T05:01:24;12.83;;;8.50;;
71637;SDS011;59485;43.542;-5.676;2024-03-17T05:03:53;16.00;;;7.72;;
71637;SDS011;59485;43.542;-5.676;2024-03-17T05:06:18;19.73;;;8.23;;
71637;SDS011;59485;43.542;-5.676;2024-03-17T05:08:43;15.97;;;8.97;;
71637;SDS011;59485;43.542;-5.676;2024-03-17T05:11:09;16.37;;;7.43;;
71637;SDS011;59485;43.542;-5.676;2024-03-17T05:13:35;13.20;;;8.23;;
71637;SDS011;59485;43.542;-5.676;2024-03-17T05:16:01;14.00;;;7.40;;
71637;SDS011;59485;43.542;-5.676;2024-03-17T05:18:27;13.10;;;8.10;;
71637;SDS011;59485;43.542;-5.676;2024-03-17T05:21:03;12.70;;;8.20;;
71637;SDS011;59485;43.542;-5.676;2024-03-17T05:23:29;14.10;;;7.77;;
71637;SDS011;59485;43.542;-5.676;2024-03-17T05:25:55;15.55;;;7.53;;
71637;SDS011;59485;43.542;-5.676;2024-03-17T05:28:21;14.48;;;7.47;;
71637;SDS011;59485;43.542;-5.676;2024-03-17T05:30:46;18.93;;;8.03;;
71637;SDS011;59485;43.542;-5.676;2024-03-17T05:33:17;21.52;;;8.15;;
71637;SDS011;59485;43.542;-5.676;2024-03-17T05:38:24;26.58;;;7.75;;
71637;SDS011;59485;43.542;-5.676;2024-03-17T05:40:56;25.10;;;8.20;;
71637;SDS011;59485;43.542;-5.676;2024-03-17T05:43:22;24.67;;;8.00;;
71637;SDS011;59485;43.542;-5.676;2024-03-17T05:45:49;26.45;;;8.50;;
71637;SDS011;59485;43.542;-5.676;2024-03-17T05:48:15;28.23;;;8.38;;
71637;SDS011;59485;43.542;-5.676;2024-03-17T05:50:40;25.73;;;8.07;;
71637;SDS011;59485;43.542;-5.676;2024-03-17T05:53:06;30.27;;;11.93;;
71637;SDS011;59485;43.542;-5.676;2024-03-17T05:55:31;20.30;;;7.63;;
71637;SDS011;59485;43.542;-5.676;2024-03-17T05:57:59;22.88;;;8.55;;
71637;SDS011;59485;43.542;-5.676;2024-03-17T06:00:25;16.30;;;7.40;;
71637;SDS011;59485;43.542;-5.676;2024-03-17T06:02:50;12.60;;;6.87;;
71637;SDS011;59485;43.542;-5.676;2024-03-17T06:05:15;16.30;;;6.80;;
71637;SDS011;59485;43.542;-5.676;2024-03-17T06:07:44;14.38;;;6.57;;
71637;SDS011;59485;43.542;-5.676;2024-03-17T06:10:09;15.63;;;6.93;;
71637;SDS011;59485;43.542;-5.676;2024-03-17T06:12:35;22.00;;;7.10;;
71637;SDS011;59485;43.542;-5.676;2024-03-17T06:15:02;16.03;;;6.87;;
71637;SDS011;59485;43.542;-5.676;2024-03-17T06:17:27;16.52;;;7.18;;
71637;SDS011;59485;43.542;-5.676;2024-03-17T06:19:53;25.77;;;7.53;;
71637;SDS011;59485;43.542;-5.676;2024-03-17T06:22:18;20.67;;;8.07;;
71637;SDS011;59485;43.542;-5.676;2024-03-17T06:24:43;21.10;;;7.38;;
71637;SDS011;59485;43.542;-5.676;2024-03-17T06:27:09;18.27;;;7.40;;
71637;SDS011;59485;43.542;-5.676;2024-03-17T06:29:34;22.33;;;7.60;;
71637;SDS011;59485;43.542;-5.676;2024-03-17T06:32:00;21.67;;;8.77;;
71637;SDS011;59485;43.542;-5.676;2024-03-17T06:34:25;17.57;;;7.87;;
71637;SDS011;59485;43.542;-5.676;2024-03-17T06:36:51;13.88;;;6.90;;
71637;SDS011;59485;43.542;-5.676;2024-03-17T06:39:16;15.63;;;6.77;;
71637;SDS011;59485;43.542;-5.676;2024-03-17T06:41:46;18.80;;;7.90;;
71637;SDS011;59485;43.542;-5.676;2024-03-17T06:44:11;18.47;;;7.73;;
71637;SDS011;59485;43.542;-5.676;2024-03-17T06:46:37;13.83;;;7.80;;
71637;SDS011;59485;43.542;-5.676;2024-03-17T06:49:02;20.83;;;7.93;;
71637;SDS011;59485;43.542;-5.676;2024-03-17T06:51:27;15.80;;;7.28;;
71637;SDS011;59485;43.542;-5.676;2024-03-17T06:53:53;14.50;;;7.83;;
71637;SDS011;59485;43.542;-5.676;2024-03-17T06:56:18;13.43;;;7.67;;
71637;SDS011;59485;43.542;-5.676;2024-03-17T06:58:43;14.57;;;8.83;;
71637;SDS011;59485;43.542;-5.676;2024-03-17T07:01:09;14.27;;;7.60;;
71637;SDS011;59485;43.542;-5.676;2024-03-17T07:03:34;13.30;;;7.67;;
71637;SDS011;59485;43.542;-5.676;2024-03-17T07:06:00;13.07;;;7.93;;
71637;SDS011;59485;43.542;-5.676;2024-03-17T07:08:29;13.20;;;7.50;;
71637;SDS011;59485;43.542;-5.676;2024-03-17T07:11:01;12.40;;;7.55;;
71637;SDS011;59485;43.542;-5.676;2024-03-17T07:13:32;9.15;;;8.07;;
71637;SDS011;59485;43.542;-5.676;2024-03-17T07:15:58;12.23;;;8.63;;
71637;SDS011;59485;43.542;-5.676;2024-03-17T07:18:24;15.55;;;8.02;;
71637;SDS011;59485;43.542;-5.676;2024-03-17T07:20:50;19.73;;;8.10;;
71637;SDS011;59485;43.542;-5.676;2024-03-17T07:23:15;15.15;;;8.15;;
71637;SDS011;59485;43.542;-5.676;2024-03-17T07:25:41;16.67;;;9.00;;
71637;SDS011;59485;43.542;-5.676;2024-03-17T07:28:07;14.15;;;8.32;;
71637;SDS011;59485;43.542;-5.676;2024-03-17T07:30:32;15.40;;;9.53;;
71637;SDS011;59485;43.542;-5.676;2024-03-17T07:32:58;14.30;;;9.20;;
71637;SDS011;59485;43.542;-5.676;2024-03-17T07:35:23;14.70;;;8.97;;
71637;SDS011;59485;43.542;-5.676;2024-03-17T07:37:49;11.80;;;8.37;;
71637;SDS011;59485;43.542;-5.676;2024-03-17T07:40:14;12.80;;;8.90;;
71637;SDS011;59485;43.542;-5.676;2024-03-17T07:42:40;17.25;;;14.32;;
71637;SDS011;59485;43.542;-5.676;2024-03-17T07:45:07;15.47;;;9.43;;
71637;SDS011;59485;43.542;-5.676;2024-03-17T07:47:32;14.70;;;8.52;;
71637;SDS011;59485;43.542;-5.676;2024-03-17T07:50:03;17.20;;;9.32;;
71637;SDS011;59485;43.542;-5.676;2024-03-17T07:52:30;14.45;;;9.90;;
71637;SDS011;59485;43.542;-5.676;2024-03-17T07:54:56;10.43;;;8.70;;
71637;SDS011;59485;43.542;-5.676;2024-03-17T07:57:21;12.23;;;8.23;;
71637;SDS011;59485;43.542;-5.676;2024-03-17T07:59:49;11.97;;;8.50;;
71637;SDS011;59485;43.542;-5.676;2024-03-17T08:02:14;11.85;;;8.57;;
71637;SDS011;59485;43.542;-5.676;2024-03-17T08:04:40;13.23;;;9.37;;
71637;SDS011;59485;43.542;-5.676;2024-03-17T08:07:05;15.57;;;8.90;;
71637;SDS011;59485;43.542;-5.676;2024-03-17T08:09:30;11.57;;;8.40;;
71637;SDS011;59485;43.542;-5.676;2024-03-17T08:11:56;11.50;;;8.73;;
71637;SDS011;59485;43.542;-5.676;2024-03-17T08:14:21;11.93;;;8.40;;
71637;SDS011;59485;43.542;-5.676;2024-03-17T08:16:46;15.10;;;9.17;;
71637;SDS011;59485;43.542;-5.676;2024-03-17T08:19:12;12.33;;;8.67;;
71637;SDS011;59485;43.542;-5.676;2024-03-17T08:21:37;18.60;;;9.77;;
71637;SDS011;59485;43.542;-5.676;2024-03-17T08:24:03;16.33;;;9.40;;
71637;SDS011;59485;43.542;-5.676;2024-03-17T08:26:28;15.17;;;9.30;;
71637;SDS011;59485;43.542;-5.676;2024-03-17T08:28:54;17.13;;;10.93;;
71637;SDS011;59485;43.542;-5.676;2024-03-17T08:31:19;16.87;;;11.60;;
71637;SDS011;59485;43.542;-5.676;2024-03-17T08:33:44;16.03;;;11.80;;
71637;SDS011;59485;43.542;-5.676;2024-03-17T08:36:10;17.80;;;12.67;;
71637;SDS011;59485;43.542;-5.676;2024-03-17T08:38:36;17.63;;;12.88;;
71637;SDS011;59485;43.542;-5.676;2024-03-17T08:41:03;24.63;;;17.88;;
71637;SDS011;59485;43.542;-5.676;2024-03-17T08:43:29;16.02;;;10.73;;
71637;SDS011;59485;43.542;-5.676;2024-03-17T08:45:58;13.93;;;10.70;;
71637;SDS011;59485;43.542;-5.676;2024-03-17T08:48:25;13.20;;;9.02;;
71637;SDS011;59485;43.542;-5.676;2024-03-17T08:50:51;11.33;;;9.60;;
71637;SDS011;59485;43.542;-5.676;2024-03-17T08:53:17;12.05;;;8.30;;
71637;SDS011;59485;43.542;-5.676;2024-03-17T08:55:42;12.67;;;8.20;;
71637;SDS011;59485;43.542;-5.676;2024-03-17T08:58:08;14.35;;;9.18;;
71637;SDS011;59485;43.542;-5.676;2024-03-17T09:00:34;10.73;;;8.13;;
71637;SDS011;59485;43.542;-5.676;2024-03-17T09:03:01;13.13;;;8.07;;
71637;SDS011;59485;43.542;-5.676;2024-03-17T09:05:27;12.43;;;7.87;;
71637;SDS011;59485;43.542;-5.676;2024-03-17T09:07:52;14.40;;;12.13;;
71637;SDS011;59485;43.542;-5.676;2024-03-17T09:10:17;12.47;;;7.80;;
71637;SDS011;59485;43.542;-5.676;2024-03-17T09:12:43;12.83;;;8.67;;
71637;SDS011;59485;43.542;-5.676;2024-03-17T09:15:08;9.90;;;8.43;;
71637;SDS011;59485;43.542;-5.676;2024-03-17T09:17:36;14.40;;;8.02;;
71637;SDS011;59485;43.542;-5.676;2024-03-17T09:20:02;10.40;;;7.73;;
71637;SDS011;59485;43.542;-5.676;2024-03-17T09:22:27;11.85;;;7.00;;
71637;SDS011;59485;43.542;-5.676;2024-03-17T09:24:54;12.95;;;9.77;;
71637;SDS011;59485;43.542;-5.676;2024-03-17T09:27:19;11.27;;;8.13;;
71637;SDS011;59485;43.542;-5.676;2024-03-17T09:29:47;11.00;;;7.80;;
71637;SDS011;59485;43.542;-5.676;2024-03-17T09:32:12;9.35;;;7.53;;
71637;SDS011;59485;43.542;-5.676;2024-03-17T09:34:43;14.63;;;11.90;;
71637;SDS011;59485;43.542;-5.676;2024-03-17T09:37:08;13.00;;;8.30;;
71637;SDS011;59485;43.542;-5.676;2024-03-17T09:39:34;12.63;;;10.73;;
71637;SDS011;59485;43.542;-5.676;2024-03-17T09:41:59;9.93;;;7.40;;
71637;SDS011;59485;43.542;-5.676;2024-03-17T09:44:25;10.60;;;9.10;;
71637;SDS011;59485;43.542;-5.676;2024-03-17T09:46:51;10.43;;;7.75;;
71637;SDS011;59485;43.542;-5.676;2024-03-17T09:49:17;16.90;;;15.20;;
71637;SDS011;59485;43.542;-5.676;2024-03-17T09:51:42;14.63;;;8.95;;
71637;SDS011;59485;43.542;-5.676;2024-03-17T09:54:18;10.97;;;7.73;;
71637;SDS011;59485;43.542;-5.676;2024-03-17T09:56:46;10.20;;;7.82;;
71637;SDS011;59485;43.542;-5.676;2024-03-17T09:59:12;11.47;;;8.07;;
71637;SDS011;59485;43.542;-5.676;2024-03-17T10:01:37;10.07;;;7.97;;
71637;SDS011;59485;43.542;-5.676;2024-03-17T10:04:03;17.07;;;15.40;;
71637;SDS011;59485;43.542;-5.676;2024-03-17T10:06:35;14.23;;;9.10;;
71637;SDS011;59485;43.542;-5.676;2024-03-17T10:09:09;11.90;;;9.52;;
71637;SDS011;59485;43.542;-5.676;2024-03-17T10:11:46;16.93;;;9.63;;
71637;SDS011;59485;43.542;-5.676;2024-03-17T10:14:12;17.48;;;9.45;;
71637;SDS011;59485;43.542;-5.676;2024-03-17T10:16:41;13.03;;;8.80;;
71637;SDS011;59485;43.542;-5.676;2024-03-17T10:21:38;18.63;;;9.27;;
71637;SDS011;59485;43.542;-5.676;2024-03-17T10:24:04;15.82;;;8.52;;
71637;SDS011;59485;43.542;-5.676;2024-03-17T10:26:30;12.23;;;8.50;;
71637;SDS011;59485;43.542;-5.676;2024-03-17T10:28:55;10.10;;;8.33;;
71637;SDS011;59485;43.542;-5.676;2024-03-17T10:31:21;10.67;;;8.10;;
71637;SDS011;59485;43.542;-5.676;2024-03-17T10:33:46;11.88;;;7.28;;
71637;SDS011;59485;43.542;-5.676;2024-03-17T10:36:25;13.23;;;7.40;;
71637;SDS011;59485;43.542;-5.676;2024-03-17T10:38:51;12.97;;;11.03;;
71637;SDS011;59485;43.542;-5.676;2024-03-17T10:41:18;11.68;;;7.97;;
71637;SDS011;59485;43.542;-5.676;2024-03-17T10:43:45;13.32;;;6.97;;
71637;SDS011;59485;43.542;-5.676;2024-03-17T10:46:11;19.00;;;14.03;;
71637;SDS011;59485;43.542;-5.676;2024-03-17T10:48:38;21.23;;;19.42;;
71637;SDS011;59485;43.542;-5.676;2024-03-17T10:51:04;14.13;;;9.20;;
71637;SDS011;59485;43.542;-5.676;2024-03-17T10:53:30;11.13;;;7.70;;
71637;SDS011;59485;43.542;-5.676;2024-03-17T10:56:00;10.68;;;7.63;;
71637;SDS011;59485;43.542;-5.676;2024-03-17T11:00:52;14.05;;;9.02;;
71637;SDS011;59485;43.542;-5.676;2024-03-17T11:03:18;10.45;;;8.60;;
71637;SDS011;59485;43.542;-5.676;2024-03-17T11:05:43;18.63;;;8.40;;
71637;SDS011;59485;43.542;-5.676;2024-03-17T11:08:12;17.00;;;7.93;;
71637;SDS011;59485;43.542;-5.676;2024-03-17T11:10:39;13.35;;;8.80;;
71637;SDS011;59485;43.542;-5.676;2024-03-17T11:13:23;11.87;;;8.20;;
71637;SDS011;59485;43.542;-5.676;2024-03-17T11:15:49;14.88;;;7.70;;
71637;SDS011;59485;43.542;-5.676;2024-03-17T11:21:00;9.00;;;6.45;;
71637;SDS011;59485;43.542;-5.676;2024-03-17T11:23:28;10.57;;;7.35;;
71637;SDS011;59485;43.542;-5.676;2024-03-17T11:25:54;11.20;;;6.60;;
71637;SDS011;59485;43.542;-5.676;2024-03-17T11:31:03;12.43;;;6.80;;
71637;SDS011;59485;43.542;-5.676;2024-03-17T11:38:53;11.27;;;6.55;;
71637;SDS011;59485;43.542;-5.676;2024-03-17T11:46:56;10.13;;;8.05;;
71637;SDS011;59485;43.542;-5.676;2024-03-17T11:49:25;13.23;;;6.83;;
71637;SDS011;59485;43.542;-5.676;2024-03-17T11:51:52;11.38;;;6.65;;
71637;SDS011;59485;43.542;-5.676;2024-03-17T11:54:18;17.20;;;15.52;;
71637;SDS011;59485;43.542;-5.676;2024-03-17T11:56:53;9.10;;;6.45;;
71637;SDS011;59485;43.542;-5.676;2024-03-17T11:59:18;10.20;;;7.22;;
71637;SDS011;59485;43.542;-5.676;2024-03-17T12:01:53;12.67;;;11.47;;
71637;SDS011;59485;43.542;-5.676;2024-03-17T12:04:19;11.20;;;7.82;;
71637;SDS011;59485;43.542;-5.676;2024-03-17T12:09:24;13.80;;;8.13;;
71637;SDS011;59485;43.542;-5.676;2024-03-17T12:14:18;11.77;;;6.93;;
71637;SDS011;59485;43.542;-5.676;2024-03-17T12:16:49;9.35;;;7.47;;
71637;SDS011;59485;43.542;-5.676;2024-03-17T12:19:16;10.53;;;7.03;;
71637;SDS011;59485;43.542;-5.676;2024-03-17T12:21:43;10.77;;;7.90;;
71637;SDS011;59485;43.542;-5.676;2024-03-17T12:24:13;14.77;;;7.50;;
71637;SDS011;59485;43.542;-5.676;2024-03-17T12:26:39;10.32;;;7.85;;
71637;SDS011;59485;43.542;-5.676;2024-03-17T12:29:05;13.52;;;7.20;;
71637;SDS011;59485;43.542;-5.676;2024-03-17T12:31:43;12.17;;;7.90;;
71637;SDS011;59485;43.542;-5.676;2024-03-17T12:34:09;13.02;;;7.50;;
71637;SDS011;59485;43.542;-5.676;2024-03-17T12:36:34;11.70;;;7.93;;
71637;SDS011;59485;43.542;-5.676;2024-03-17T12:39:09;11.60;;;7.27;;
71637;SDS011;59485;43.542;-5.676;2024-03-17T12:41:36;16.52;;;14.63;;
71637;SDS011;59485;43.542;-5.676;2024-03-17T12:44:01;12.50;;;7.43;;
71637;SDS011;59485;43.542;-5.676;2024-03-17T12:46:27;11.97;;;7.23;;
71637;SDS011;59485;43.542;-5.676;2024-03-17T12:48:58;16.73;;;9.27;;
71637;SDS011;59485;43.542;-5.676;2024-03-17T12:51:23;15.43;;;8.27;;
71637;SDS011;59485;43.542;-5.676;2024-03-17T12:53:48;12.33;;;8.63;;
71637;SDS011;59485;43.542;-5.676;2024-03-17T12:56:22;10.90;;;6.53;;
71637;SDS011;59485;43.542;-5.676;2024-03-17T12:59:08;20.33;;;18.23;;
71637;SDS011;59485;43.542;-5.676;2024-03-17T13:01:53;12.90;;;7.97;;
71637;SDS011;59485;43.542;-5.676;2024-03-17T13:04:18;10.93;;;8.07;;
71637;SDS011;59485;43.542;-5.676;2024-03-17T13:06:43;13.33;;;8.57;;
71637;SDS011;59485;43.542;-5.676;2024-03-17T13:09:09;10.83;;;8.10;;
71637;SDS011;59485;43.542;-5.676;2024-03-17T13:11:37;21.67;;;13.95;;
71637;SDS011;59485;43.542;-5.676;2024-03-17T13:14:02;19.50;;;10.55;;
71637;SDS011;59485;43.542;-5.676;2024-03-17T13:16:31;15.32;;;10.65;;
71637;SDS011;59485;43.542;-5.676;2024-03-17T13:18:57;14.40;;;8.55;;
71637;SDS011;59485;43.542;-5.676;2024-03-17T13:21:22;12.77;;;7.63;;
71637;SDS011;59485;43.542;-5.676;2024-03-17T13:23:47;11.33;;;7.90;;
71637;SDS011;59485;43.542;-5.676;2024-03-17T13:26:13;15.60;;;9.10;;
71637;SDS011;59485;43.542;-5.676;2024-03-17T13:28:38;15.23;;;9.07;;
71637;SDS011;59485;43.542;-5.676;2024-03-17T13:31:04;15.90;;;10.63;;
71637;SDS011;59485;43.542;-5.676;2024-03-17T13:33:30;15.93;;;10.93;;
71637;SDS011;59485;43.542;-5.676;2024-03-17T13:35:56;21.60;;;12.27;;
71637;SDS011;59485;43.542;-5.676;2024-03-17T13:38:21;19.13;;;9.47;;
71637;SDS011;59485;43.542;-5.676;2024-03-17T13:40:47;17.43;;;11.70;;
71637;SDS011;59485;43.542;-5.676;2024-03-17T13:43:12;24.13;;;13.53;;
71637;SDS011;59485;43.542;-5.676;2024-03-17T13:45:40;23.45;;;12.80;;
71637;SDS011;59485;43.542;-5.676;2024-03-17T13:48:06;33.17;;;18.75;;
71637;SDS011;59485;43.542;-5.676;2024-03-17T13:50:35;10.20;;;7.55;;
71637;SDS011;59485;43.542;-5.676;2024-03-17T13:53:01;12.80;;;7.47;;
71637;SDS011;59485;43.542;-5.676;2024-03-17T13:55:28;11.70;;;7.75;;
71637;SDS011;59485;43.542;-5.676;2024-03-17T13:57:54;13.17;;;7.60;;
71637;SDS011;59485;43.542;-5.676;2024-03-17T14:00:20;15.98;;;7.90;;
71637;SDS011;59485;43.542;-5.676;2024-03-17T14:02:46;13.93;;;7.70;;
71637;SDS011;59485;43.542;-5.676;2024-03-17T14:05:12;12.73;;;8.07;;
71637;SDS011;59485;43.542;-5.676;2024-03-17T14:07:38;15.68;;;8.05;;
71637;SDS011;59485;43.542;-5.676;2024-03-17T14:10:04;15.15;;;9.02;;
71637;SDS011;59485;43.542;-5.676;2024-03-17T14:12:29;14.50;;;7.30;;
71637;SDS011;59485;43.542;-5.676;2024-03-17T14:14:56;15.68;;;8.77;;
71637;SDS011;59485;43.542;-5.676;2024-03-17T14:17:21;14.07;;;8.57;;
71637;SDS011;59485;43.542;-5.676;2024-03-17T14:19:47;14.70;;;7.93;;
71637;SDS011;59485;43.542;-5.676;2024-03-17T14:22:12;13.98;;;8.02;;
71637;SDS011;59485;43.542;-5.676;2024-03-17T14:24:37;13.63;;;8.30;;
71637;SDS011;59485;43.542;-5.676;2024-03-17T14:27:03;12.90;;;8.07;;
71637;SDS011;59485;43.542;-5.676;2024-03-17T14:29:29;12.93;;;8.77;;
71637;SDS011;59485;43.542;-5.676;2024-03-17T14:31:54;13.63;;;7.20;;
71637;SDS011;59485;43.542;-5.676;2024-03-17T14:34:19;24.10;;;19.30;;
71637;SDS011;59485;43.542;-5.676;2024-03-17T14:36:45;12.60;;;7.40;;
71637;SDS011;59485;43.542;-5.676;2024-03-17T14:39:10;14.20;;;7.10;;
71637;SDS011;59485;43.542;-5.676;2024-03-17T14:41:36;9.97;;;6.83;;
71637;SDS011;59485;43.542;-5.676;2024-03-17T14:44:02;11.27;;;6.80;;